sensor_id;sensor_type;location;lat;lon;timestamp;pressure;altitude;pressure_sealevel;temperature;humidity
64675;BME280;51090;51.512;11.332;2022-07-22T00:01:38;99576.38;;;21.38;54.63
64675;BME280;51090;51.512;11.332;2022-07-22T00:04:04;99580.44;;;21.41;54.66
64675;BME280;51090;51.512;11.332;2022-07-22T00:06:30;99584.94;;;21.35;54.89
64675;BME280;51090;51.512;11.332;2022-07-22T00:08:56;99580.88;;;21.33;54.97
64675;BME280;51090;51.512;11.332;2022-07-22T00:11:23;99583.81;;;21.31;54.81
64675;BME280;51090;51.512;11.332;2022-07-22T00:13:49;99578.72;;;21.35;55.00
64675;BME280;51090;51.512;11.332;2022-07-22T00:16:15;99576.28;;;21.33;54.68
64675;BME280;51090;51.512;11.332;2022-07-22T00:18:41;99574.34;;;21.28;54.70
64675;BME280;51090;51.512;11.332;2022-07-22T00:21:07;99586.31;;;21.16;55.88
64675;BME280;51090;51.512;11.332;2022-07-22T00:23:34;99581.94;;;21.09;55.65
64675;BME280;51090;51.512;11.332;2022-07-22T00:26:00;99578.91;;;21.06;55.31
64675;BME280;51090;51.512;11.332;2022-07-22T00:28:26;99583.72;;;21.04;55.38
64675;BME280;51090;51.512;11.332;2022-07-22T00:30:52;99576.09;;;20.96;55.75
64675;BME280;51090;51.512;11.332;2022-07-22T00:33:18;99573.66;;;20.94;55.61
64675;BME280;51090;51.512;11.332;2022-07-22T00:35:44;99571.13;;;20.87;56.37
64675;BME280;51090;51.512;11.332;2022-07-22T00:38:10;99574.09;;;20.86;55.88
64675;BME280;51090;51.512;11.332;2022-07-22T00:40:36;99574.56;;;20.83;56.09
64675;BME280;51090;51.512;11.332;2022-07-22T00:43:02;99570.47;;;20.80;56.08
64675;BME280;51090;51.512;11.332;2022-07-22T00:45:28;99569.94;;;20.78;56.01
64675;BME280;51090;51.512;11.332;2022-07-22T00:47:54;99576.38;;;20.77;56.13
64675;BME280;51090;51.512;11.332;2022-07-22T00:50:20;99578.75;;;20.74;56.11
64675;BME280;51090;51.512;11.332;2022-07-22T00:52:49;99579.50;;;20.69;56.27
64675;BME280;51090;51.512;11.332;2022-07-22T00:55:15;99584.50;;;20.60;56.40
64675;BME280;51090;51.512;11.332;2022-07-22T00:57:43;99574.59;;;20.49;56.74
64675;BME280;51090;51.512;11.332;2022-07-22T01:00:12;99578.00;;;20.44;58.11
64675;BME280;51090;51.512;11.332;2022-07-22T01:02:39;99573.13;;;20.41;56.89
64675;BME280;51090;51.512;11.332;2022-07-22T01:05:05;99575.25;;;20.39;56.83
64675;BME280;51090;51.512;11.332;2022-07-22T01:07:32;99575.75;;;20.36;57.12
64675;BME280;51090;51.512;11.332;2022-07-22T01:09:58;99574.13;;;20.35;57.29
64675;BME280;51090;51.512;11.332;2022-07-22T01:12:24;99565.47;;;20.33;57.29
64675;BME280;51090;51.512;11.332;2022-07-22T01:14:50;99570.34;;;20.36;57.19
64675;BME280;51090;51.512;11.332;2022-07-22T01:17:17;99567.16;;;20.39;57.25
64675;BME280;51090;51.512;11.332;2022-07-22T01:19:43;99563.75;;;20.44;57.45
64675;BME280;51090;51.512;11.332;2022-07-22T01:22:09;99569.38;;;20.42;57.45
64675;BME280;51090;51.512;11.332;2022-07-22T01:24:35;99560.47;;;20.42;57.75
64675;BME280;51090;51.512;11.332;2022-07-22T01:27:01;99565.13;;;20.47;57.62
64675;BME280;51090;51.512;11.332;2022-07-22T01:29:28;99560.53;;;20.47;57.47
64675;BME280;51090;51.512;11.332;2022-07-22T01:31:54;99565.69;;;20.49;57.24
64675;BME280;51090;51.512;11.332;2022-07-22T01:34:20;99567.25;;;20.44;57.63
64675;BME280;51090;51.512;11.332;2022-07-22T01:36:46;99560.47;;;20.42;57.49
64675;BME280;51090;51.512;11.332;2022-07-22T01:39:12;99558.53;;;20.37;57.62
64675;BME280;51090;51.512;11.332;2022-07-22T01:41:38;99567.66;;;20.36;57.68
64675;BME280;51090;51.512;11.332;2022-07-22T01:44:04;99563.09;;;20.37;57.82
64675;BME280;51090;51.512;11.332;2022-07-22T01:46:30;99569.31;;;20.37;57.78
64675;BME280;51090;51.512;11.332;2022-07-22T01:48:56;99568.97;;;20.34;57.70
64675;BME280;51090;51.512;11.332;2022-07-22T01:51:23;99565.06;;;20.25;57.93
64675;BME280;51090;51.512;11.332;2022-07-22T01:53:49;99568.81;;;20.23;57.89
64675;BME280;51090;51.512;11.332;2022-07-22T01:56:15;99580.97;;;20.26;57.86
64675;BME280;51090;51.512;11.332;2022-07-22T01:58:41;99564.50;;;20.22;57.86
64675;BME280;51090;51.512;11.332;2022-07-22T02:01:08;99575.09;;;20.29;57.88
64675;BME280;51090;51.512;11.332;2022-07-22T02:03:34;99567.84;;;20.30;57.58
64675;BME280;51090;51.512;11.332;2022-07-22T02:06:00;99573.38;;;20.23;57.63
64675;BME280;51090;51.512;11.332;2022-07-22T02:08:27;99568.91;;;20.12;58.64
64675;BME280;51090;51.512;11.332;2022-07-22T02:10:53;99573.78;;;19.98;58.46
64675;BME280;51090;51.512;11.332;2022-07-22T02:13:19;99579.47;;;19.85;58.88
64675;BME280;51090;51.512;11.332;2022-07-22T02:15:45;99576.47;;;19.81;59.11
64675;BME280;51090;51.512;11.332;2022-07-22T02:18:16;99577.75;;;19.78;60.03
64675;BME280;51090;51.512;11.332;2022-07-22T02:20:42;99572.38;;;19.78;59.25
64675;BME280;51090;51.512;11.332;2022-07-22T02:23:08;99586.38;;;19.80;59.05
64675;BME280;51090;51.512;11.332;2022-07-22T02:25:37;99579.16;;;19.81;59.12
64675;BME280;51090;51.512;11.332;2022-07-22T02:28:04;99578.66;;;19.84;58.96
64675;BME280;51090;51.512;11.332;2022-07-22T02:30:30;99579.69;;;19.83;58.96
64675;BME280;51090;51.512;11.332;2022-07-22T02:32:56;99572.91;;;19.80;59.10
64675;BME280;51090;51.512;11.332;2022-07-22T02:35:22;99574.56;;;19.82;59.21
64675;BME280;51090;51.512;11.332;2022-07-22T02:37:49;99572.47;;;19.84;59.26
64675;BME280;51090;51.512;11.332;2022-07-22T02:40:15;99568.47;;;19.86;59.12
64675;BME280;51090;51.512;11.332;2022-07-22T02:42:41;99572.28;;;19.90;59.16
64675;BME280;51090;51.512;11.332;2022-07-22T02:45:08;99573.44;;;19.94;59.01
64675;BME280;51090;51.512;11.332;2022-07-22T02:47:34;99571.88;;;19.98;58.83
64675;BME280;51090;51.512;11.332;2022-07-22T02:50:01;99569.19;;;19.98;58.96
64675;BME280;51090;51.512;11.332;2022-07-22T02:52:27;99585.13;;;20.00;58.70
64675;BME280;51090;51.512;11.332;2022-07-22T02:54:53;99584.41;;;20.05;58.80
64675;BME280;51090;51.512;11.332;2022-07-22T02:57:19;99583.91;;;20.08;58.76
64675;BME280;51090;51.512;11.332;2022-07-22T02:59:45;99578.28;;;20.09;58.71
64675;BME280;51090;51.512;11.332;2022-07-22T03:02:11;99582.09;;;20.13;58.59
64675;BME280;51090;51.512;11.332;2022-07-22T03:04:37;99578.91;;;20.16;58.81
64675;BME280;51090;51.512;11.332;2022-07-22T03:07:03;99586.75;;;20.18;58.57
64675;BME280;51090;51.512;11.332;2022-07-22T03:09:29;99585.47;;;20.20;58.79
64675;BME280;51090;51.512;11.332;2022-07-22T03:11:55;99586.84;;;20.23;59.00
64675;BME280;51090;51.512;11.332;2022-07-22T03:14:21;99591.72;;;20.26;58.84
64675;BME280;51090;51.512;11.332;2022-07-22T03:16:48;99587.75;;;20.29;58.97
64675;BME280;51090;51.512;11.332;2022-07-22T03:19:14;99593.94;;;20.29;58.93
64675;BME280;51090;51.512;11.332;2022-07-22T03:21:40;99597.22;;;20.31;58.91
64675;BME280;51090;51.512;11.332;2022-07-22T03:24:06;99597.28;;;20.36;58.73
64675;BME280;51090;51.512;11.332;2022-07-22T03:26:32;99593.88;;;20.41;58.75
64675;BME280;51090;51.512;11.332;2022-07-22T03:28:58;99590.94;;;20.42;58.65
64675;BME280;51090;51.512;11.332;2022-07-22T03:31:24;99595.25;;;20.43;58.57
64675;BME280;51090;51.512;11.332;2022-07-22T03:33:50;99598.44;;;20.40;58.67
64675;BME280;51090;51.512;11.332;2022-07-22T03:36:16;99600.56;;;20.38;58.78
64675;BME280;51090;51.512;11.332;2022-07-22T03:38:42;99599.66;;;20.33;59.24
64675;BME280;51090;51.512;11.332;2022-07-22T03:41:08;99598.28;;;20.30;59.42
64675;BME280;51090;51.512;11.332;2022-07-22T03:43:34;99596.16;;;20.32;59.47
64675;BME280;51090;51.512;11.332;2022-07-22T03:46:00;99596.63;;;20.29;60.14
64675;BME280;51090;51.512;11.332;2022-07-22T03:48:26;99596.53;;;20.24;59.91
64675;BME280;51090;51.512;11.332;2022-07-22T03:50:53;99603.63;;;20.13;60.40
64675;BME280;51090;51.512;11.332;2022-07-22T03:53:19;99592.69;;;20.03;61.34
64675;BME280;51090;51.512;11.332;2022-07-22T03:55:46;99601.59;;;20.04;60.70
64675;BME280;51090;51.512;11.332;2022-07-22T03:58:12;99593.28;;;20.05;61.02
64675;BME280;51090;51.512;11.332;2022-07-22T04:00:38;99588.69;;;20.06;60.83
64675;BME280;51090;51.512;11.332;2022-07-22T04:03:04;99594.97;;;20.11;60.91
64675;BME280;51090;51.512;11.332;2022-07-22T04:05:30;99593.69;;;20.14;61.11
64675;BME280;51090;51.512;11.332;2022-07-22T04:07:56;99598.34;;;20.01;61.63
64675;BME280;51090;51.512;11.332;2022-07-22T04:10:22;99593.50;;;20.04;61.69
64675;BME280;51090;51.512;11.332;2022-07-22T04:12:48;99595.16;;;20.05;61.64
64675;BME280;51090;51.512;11.332;2022-07-22T04:15:14;99597.13;;;20.09;61.51
64675;BME280;51090;51.512;11.332;2022-07-22T04:17:40;99588.63;;;20.00;61.99
64675;BME280;51090;51.512;11.332;2022-07-22T04:20:07;99592.69;;;20.03;62.08
64675;BME280;51090;51.512;11.332;2022-07-22T04:22:33;99593.50;;;20.04;62.60
64675;BME280;51090;51.512;11.332;2022-07-22T04:24:59;99590.28;;;20.01;62.46
64675;BME280;51090;51.512;11.332;2022-07-22T04:27:25;99595.56;;;19.96;62.49
64675;BME280;51090;51.512;11.332;2022-07-22T04:29:51;99589.44;;;20.01;62.31
64675;BME280;51090;51.512;11.332;2022-07-22T04:32:17;99592.22;;;20.06;62.51
64675;BME280;51090;51.512;11.332;2022-07-22T04:34:43;99596.47;;;20.19;62.01
64675;BME280;51090;51.512;11.332;2022-07-22T04:37:09;99595.59;;;20.30;61.78
64675;BME280;51090;51.512;11.332;2022-07-22T04:39:35;99588.16;;;20.37;61.29
64675;BME280;51090;51.512;11.332;2022-07-22T04:42:01;99596.31;;;20.42;61.21
64675;BME280;51090;51.512;11.332;2022-07-22T04:44:27;99593.94;;;20.46;61.00
64675;BME280;51090;51.512;11.332;2022-07-22T04:46:53;99598.34;;;20.52;60.93
64675;BME280;51090;51.512;11.332;2022-07-22T04:49:19;99602.59;;;20.48;60.85
64675;BME280;51090;51.512;11.332;2022-07-22T04:51:46;99604.00;;;20.51;61.08
64675;BME280;51090;51.512;11.332;2022-07-22T04:54:12;99595.34;;;20.49;61.12
64675;BME280;51090;51.512;11.332;2022-07-22T04:56:38;99605.88;;;20.50;61.08
64675;BME280;51090;51.512;11.332;2022-07-22T04:59:04;99590.44;;;20.45;61.39
64675;BME280;51090;51.512;11.332;2022-07-22T05:01:30;99600.41;;;20.45;61.60
64675;BME280;51090;51.512;11.332;2022-07-22T05:03:56;99602.59;;;20.48;61.09
64675;BME280;51090;51.512;11.332;2022-07-22T05:06:22;99596.94;;;20.50;61.07
64675;BME280;51090;51.512;11.332;2022-07-22T05:08:48;99595.00;;;20.62;60.90
64675;BME280;51090;51.512;11.332;2022-07-22T05:11:14;99598.44;;;20.74;60.82
64675;BME280;51090;51.512;11.332;2022-07-22T05:13:40;99598.06;;;20.87;60.65
64675;BME280;51090;51.512;11.332;2022-07-22T05:16:07;99597.22;;;21.04;60.32
64675;BME280;51090;51.512;11.332;2022-07-22T05:18:33;99596.94;;;21.22;59.88
64675;BME280;51090;51.512;11.332;2022-07-22T05:21:00;99597.84;;;21.55;59.34
64675;BME280;51090;51.512;11.332;2022-07-22T05:23:27;99603.28;;;21.82;58.69
64675;BME280;51090;51.512;11.332;2022-07-22T05:25:53;99600.72;;;21.98;57.84
64675;BME280;51090;51.512;11.332;2022-07-22T05:28:19;99600.03;;;22.07;57.35
64675;BME280;51090;51.512;11.332;2022-07-22T05:30:45;99596.75;;;22.05;56.94
64675;BME280;51090;51.512;11.332;2022-07-22T05:33:11;99597.38;;;22.12;56.86
64675;BME280;51090;51.512;11.332;2022-07-22T05:35:37;99600.34;;;22.16;56.50
64675;BME280;51090;51.512;11.332;2022-07-22T05:38:04;99598.03;;;22.25;56.19
64675;BME280;51090;51.512;11.332;2022-07-22T05:40:31;99596.72;;;22.27;56.08
64675;BME280;51090;51.512;11.332;2022-07-22T05:42:58;99591.94;;;22.39;55.77
64675;BME280;51090;51.512;11.332;2022-07-22T05:45:24;99594.66;;;22.45;55.47
64675;BME280;51090;51.512;11.332;2022-07-22T05:47:51;99597.00;;;22.31;55.53
64675;BME280;51090;51.512;11.332;2022-07-22T05:50:17;99597.47;;;22.23;56.03
64675;BME280;51090;51.512;11.332;2022-07-22T05:52:43;99602.97;;;22.33;56.00
64675;BME280;51090;51.512;11.332;2022-07-22T05:55:09;99610.16;;;22.54;55.70
64675;BME280;51090;51.512;11.332;2022-07-22T05:57:36;99603.78;;;22.76;55.14
64675;BME280;51090;51.512;11.332;2022-07-22T06:00:06;99605.81;;;22.96;54.42
64675;BME280;51090;51.512;11.332;2022-07-22T06:02:32;99611.13;;;23.28;53.71
64675;BME280;51090;51.512;11.332;2022-07-22T06:04:58;99613.94;;;23.48;53.07
64675;BME280;51090;51.512;11.332;2022-07-22T06:07:26;99604.19;;;23.58;52.83
64675;BME280;51090;51.512;11.332;2022-07-22T06:09:53;99604.50;;;23.72;52.43
64675;BME280;51090;51.512;11.332;2022-07-22T06:12:19;99612.69;;;23.82;51.79
64675;BME280;51090;51.512;11.332;2022-07-22T06:14:45;99616.13;;;23.62;51.36
64675;BME280;51090;51.512;11.332;2022-07-22T06:17:12;99619.50;;;23.26;51.82
64675;BME280;51090;51.512;11.332;2022-07-22T06:19:38;99621.09;;;23.12;52.16
64675;BME280;51090;51.512;11.332;2022-07-22T06:22:05;99618.84;;;23.04;52.47
64675;BME280;51090;51.512;11.332;2022-07-22T06:24:31;99629.91;;;22.97;52.61
64675;BME280;51090;51.512;11.332;2022-07-22T06:26:57;99632.47;;;22.77;52.79
64675;BME280;51090;51.512;11.332;2022-07-22T06:29:23;99629.94;;;22.65;52.97
64675;BME280;51090;51.512;11.332;2022-07-22T06:31:49;99628.38;;;22.69;52.98
64675;BME280;51090;51.512;11.332;2022-07-22T06:34:15;99627.25;;;22.65;53.32
64675;BME280;51090;51.512;11.332;2022-07-22T06:36:41;99635.63;;;22.64;53.21
64675;BME280;51090;51.512;11.332;2022-07-22T06:39:07;99635.38;;;22.70;53.30
64675;BME280;51090;51.512;11.332;2022-07-22T06:41:33;99634.38;;;22.76;53.43
64675;BME280;51090;51.512;11.332;2022-07-22T06:43:59;99637.06;;;22.76;53.17
64675;BME280;51090;51.512;11.332;2022-07-22T06:46:25;99636.19;;;22.71;53.13
64675;BME280;51090;51.512;11.332;2022-07-22T06:48:51;99634.06;;;22.73;53.36
64675;BME280;51090;51.512;11.332;2022-07-22T06:51:18;99642.69;;;22.70;53.26
64675;BME280;51090;51.512;11.332;2022-07-22T06:53:44;99645.94;;;22.72;53.18
64675;BME280;51090;51.512;11.332;2022-07-22T06:56:10;99640.84;;;22.80;53.11
64675;BME280;51090;51.512;11.332;2022-07-22T06:58:36;99631.16;;;22.85;53.27
64675;BME280;51090;51.512;11.332;2022-07-22T07:01:02;99635.91;;;23.04;52.82
64675;BME280;51090;51.512;11.332;2022-07-22T07:03:28;99645.97;;;23.19;52.82
64675;BME280;51090;51.512;11.332;2022-07-22T07:05:54;99645.50;;;23.28;52.14
64675;BME280;51090;51.512;11.332;2022-07-22T07:08:21;99637.63;;;23.21;52.01
64675;BME280;51090;51.512;11.332;2022-07-22T07:10:47;99642.25;;;23.25;52.45
64675;BME280;51090;51.512;11.332;2022-07-22T07:13:14;99638.00;;;23.50;52.05
64675;BME280;51090;51.512;11.332;2022-07-22T07:15:40;99639.69;;;23.66;51.45
64675;BME280;51090;51.512;11.332;2022-07-22T07:18:06;99634.06;;;23.83;51.34
64675;BME280;51090;51.512;11.332;2022-07-22T07:20:32;99642.75;;;23.85;50.94
64675;BME280;51090;51.512;11.332;2022-07-22T07:23:00;99643.84;;;23.84;50.43
64675;BME280;51090;51.512;11.332;2022-07-22T07:25:27;99644.63;;;23.80;50.51
64675;BME280;51090;51.512;11.332;2022-07-22T07:27:53;99641.63;;;23.76;50.46
64675;BME280;51090;51.512;11.332;2022-07-22T07:30:20;99649.16;;;23.59;50.59
64675;BME280;51090;51.512;11.332;2022-07-22T07:32:46;99655.59;;;23.53;50.70
64675;BME280;51090;51.512;11.332;2022-07-22T07:35:12;99647.22;;;23.49;50.62
64675;BME280;51090;51.512;11.332;2022-07-22T07:37:38;99649.69;;;23.66;50.59
64675;BME280;51090;51.512;11.332;2022-07-22T07:40:05;99644.91;;;23.88;50.61
64675;BME280;51090;51.512;11.332;2022-07-22T07:42:32;99639.50;;;23.94;49.88
64675;BME280;51090;51.512;11.332;2022-07-22T07:44:58;99642.22;;;23.99;49.88
64675;BME280;51090;51.512;11.332;2022-07-22T07:47:24;99642.00;;;24.21;49.74
64675;BME280;51090;51.512;11.332;2022-07-22T07:49:50;99641.19;;;24.36;49.32
64675;BME280;51090;51.512;11.332;2022-07-22T07:52:17;99630.91;;;24.48;48.99
64675;BME280;51090;51.512;11.332;2022-07-22T07:54:44;99640.13;;;24.62;48.68
64675;BME280;51090;51.512;11.332;2022-07-22T07:57:11;99631.97;;;24.67;48.10
64675;BME280;51090;51.512;11.332;2022-07-22T07:59:38;99634.69;;;24.67;48.46
64675;BME280;51090;51.512;11.332;2022-07-22T08:02:05;99622.22;;;24.82;48.26
64675;BME280;51090;51.512;11.332;2022-07-22T08:04:31;99633.50;;;25.09;47.91
64675;BME280;51090;51.512;11.332;2022-07-22T08:06:57;99633.44;;;25.35;47.56
64675;BME280;51090;51.512;11.332;2022-07-22T08:09:24;99628.44;;;25.62;46.94
64675;BME280;51090;51.512;11.332;2022-07-22T08:11:50;99632.63;;;25.94;46.28
64675;BME280;51090;51.512;11.332;2022-07-22T08:14:17;99628.75;;;26.05;45.72
64675;BME280;51090;51.512;11.332;2022-07-22T08:16:43;99633.44;;;26.34;45.66
64675;BME280;51090;51.512;11.332;2022-07-22T08:19:09;99628.56;;;26.65;44.69
64675;BME280;51090;51.512;11.332;2022-07-22T08:21:35;99628.75;;;26.74;44.42
64675;BME280;51090;51.512;11.332;2022-07-22T08:24:01;99626.28;;;26.78;44.38
64675;BME280;51090;51.512;11.332;2022-07-22T08:26:28;99627.25;;;26.87;44.10
64675;BME280;51090;51.512;11.332;2022-07-22T08:28:54;99629.06;;;26.97;43.81
64675;BME280;51090;51.512;11.332;2022-07-22T08:31:20;99625.09;;;27.13;43.23
64675;BME280;51090;51.512;11.332;2022-07-22T08:33:46;99632.44;;;27.36;43.04
64675;BME280;51090;51.512;11.332;2022-07-22T08:36:12;99631.66;;;27.36;42.80
64675;BME280;51090;51.512;11.332;2022-07-22T08:38:39;99626.06;;;27.46;42.53
64675;BME280;51090;51.512;11.332;2022-07-22T08:41:05;99619.97;;;27.73;41.98
64675;BME280;51090;51.512;11.332;2022-07-22T08:43:35;99599.72;;;27.79;41.25
64675;BME280;51090;51.512;11.332;2022-07-22T08:46:02;99619.63;;;27.80;41.83
64675;BME280;51090;51.512;11.332;2022-07-22T08:48:29;99628.56;;;27.62;41.91
64675;BME280;51090;51.512;11.332;2022-07-22T08:50:55;99627.53;;;27.57;42.10
64675;BME280;51090;51.512;11.332;2022-07-22T08:53:21;99620.25;;;27.53;42.23
64675;BME280;51090;51.512;11.332;2022-07-22T08:55:48;99624.16;;;27.47;41.82
64675;BME280;51090;51.512;11.332;2022-07-22T08:58:15;99636.19;;;27.41;42.31
64675;BME280;51090;51.512;11.332;2022-07-22T09:00:42;99635.31;;;27.45;42.26
64675;BME280;51090;51.512;11.332;2022-07-22T09:03:23;99634.19;;;27.51;42.01
64675;BME280;51090;51.512;11.332;2022-07-22T09:05:51;99631.72;;;27.50;41.89
64675;BME280;51090;51.512;11.332;2022-07-22T09:08:20;99638.28;;;27.49;41.68
64675;BME280;51090;51.512;11.332;2022-07-22T09:10:46;99625.56;;;27.63;41.55
64675;BME280;51090;51.512;11.332;2022-07-22T09:13:15;99623.88;;;27.67;40.05
64675;BME280;51090;51.512;11.332;2022-07-22T09:15:54;99626.59;;;27.67;40.82
64675;BME280;51090;51.512;11.332;2022-07-22T09:18:21;99628.06;;;27.78;40.77
64675;BME280;51090;51.512;11.332;2022-07-22T09:20:47;99629.44;;;27.81;40.89
64675;BME280;51090;51.512;11.332;2022-07-22T09:23:20;99629.66;;;27.42;41.31
64675;BME280;51090;51.512;11.332;2022-07-22T09:25:49;99629.66;;;27.42;41.57
64675;BME280;51090;51.512;11.332;2022-07-22T09:28:18;99633.25;;;27.13;41.90
64675;BME280;51090;51.512;11.332;2022-07-22T09:33:13;99633.31;;;27.32;41.76
64675;BME280;51090;51.512;11.332;2022-07-22T09:35:40;99624.50;;;27.40;41.45
64675;BME280;51090;51.512;11.332;2022-07-22T09:38:08;99639.53;;;27.56;40.74
64675;BME280;51090;51.512;11.332;2022-07-22T09:40:45;99633.41;;;27.46;40.81
64675;BME280;51090;51.512;11.332;2022-07-22T09:43:17;99632.31;;;27.47;40.96
64675;BME280;51090;51.512;11.332;2022-07-22T09:48:20;99634.25;;;27.22;41.38
64675;BME280;51090;51.512;11.332;2022-07-22T09:50:49;99632.00;;;27.29;40.94
64675;BME280;51090;51.512;11.332;2022-07-22T09:53:18;99634.31;;;27.41;40.87
64675;BME280;51090;51.512;11.332;2022-07-22T09:55:45;99633.25;;;27.37;40.47
64675;BME280;51090;51.512;11.332;2022-07-22T09:58:12;99638.53;;;27.28;41.04
64675;BME280;51090;51.512;11.332;2022-07-22T10:00:39;99637.03;;;27.41;40.94
64675;BME280;51090;51.512;11.332;2022-07-22T10:03:08;99640.56;;;27.42;40.59
64675;BME280;51090;51.512;11.332;2022-07-22T10:05:41;99641.53;;;27.27;40.05
64675;BME280;51090;51.512;11.332;2022-07-22T10:08:08;99639.50;;;27.38;40.35
64675;BME280;51090;51.512;11.332;2022-07-22T10:10:37;99630.59;;;27.32;39.88
64675;BME280;51090;51.512;11.332;2022-07-22T10:13:05;99631.94;;;27.53;39.69
64675;BME280;51090;51.512;11.332;2022-07-22T10:15:33;99632.06;;;27.67;39.45
64675;BME280;51090;51.512;11.332;2022-07-22T10:18:03;99628.47;;;27.48;41.23
64675;BME280;51090;51.512;11.332;2022-07-22T10:20:32;99626.69;;;27.14;42.11
64675;BME280;51090;51.512;11.332;2022-07-22T10:23:00;99630.75;;;26.92;42.62
64675;BME280;51090;51.512;11.332;2022-07-22T10:25:29;99628.13;;;27.06;42.61
64675;BME280;51090;51.512;11.332;2022-07-22T10:27:59;99635.78;;;27.04;42.57
64675;BME280;51090;51.512;11.332;2022-07-22T10:30:32;99622.91;;;26.86;42.52
64675;BME280;51090;51.512;11.332;2022-07-22T10:33:19;99628.09;;;26.87;42.59
64675;BME280;51090;51.512;11.332;2022-07-22T10:36:00;99621.31;;;26.85;42.60
64675;BME280;51090;51.512;11.332;2022-07-22T10:38:27;99619.44;;;26.80;42.94
64675;BME280;51090;51.512;11.332;2022-07-22T10:41:02;99628.66;;;26.55;43.54
64675;BME280;51090;51.512;11.332;2022-07-22T10:43:46;99624.84;;;26.51;43.51
64675;BME280;51090;51.512;11.332;2022-07-22T10:46:13;99625.72;;;26.46;43.65
64675;BME280;51090;51.512;11.332;2022-07-22T10:51:14;99615.34;;;26.83;42.99
64675;BME280;51090;51.512;11.332;2022-07-22T10:53:56;99620.91;;;26.97;42.90
64675;BME280;51090;51.512;11.332;2022-07-22T10:56:32;99624.47;;;26.92;42.94
64675;BME280;51090;51.512;11.332;2022-07-22T11:01:36;99618.81;;;26.88;42.39
64675;BME280;51090;51.512;11.332;2022-07-22T11:06:41;99618.06;;;27.07;42.24
64675;BME280;51090;51.512;11.332;2022-07-22T11:09:12;99608.97;;;27.17;42.25
64675;BME280;51090;51.512;11.332;2022-07-22T11:14:16;99610.72;;;27.31;41.87
64675;BME280;51090;51.512;11.332;2022-07-22T11:16:43;99602.19;;;27.38;40.73
64675;BME280;51090;51.512;11.332;2022-07-22T11:19:09;99599.66;;;27.85;40.62
64675;BME280;51090;51.512;11.332;2022-07-22T11:21:36;99588.25;;;28.34;39.49
64675;BME280;51090;51.512;11.332;2022-07-22T11:24:05;99591.69;;;28.73;38.21
64675;BME280;51090;51.512;11.332;2022-07-22T11:26:39;99594.50;;;28.95;38.21
64675;BME280;51090;51.512;11.332;2022-07-22T11:29:06;99587.06;;;29.01;38.12
64675;BME280;51090;51.512;11.332;2022-07-22T11:31:32;99587.75;;;29.20;37.79
64675;BME280;51090;51.512;11.332;2022-07-22T11:34:25;99588.66;;;29.16;36.64
64675;BME280;51090;51.512;11.332;2022-07-22T11:36:52;99594.13;;;29.16;37.67
64675;BME280;51090;51.512;11.332;2022-07-22T11:39:24;99596.56;;;29.17;36.85
64675;BME280;51090;51.512;11.332;2022-07-22T11:41:52;99595.63;;;28.80;36.98
64675;BME280;51090;51.512;11.332;2022-07-22T11:44:20;99587.13;;;28.54;37.22
64675;BME280;51090;51.512;11.332;2022-07-22T11:46:47;99587.59;;;28.56;37.85
64675;BME280;51090;51.512;11.332;2022-07-22T11:49:16;99579.94;;;28.58;37.29
64675;BME280;51090;51.512;11.332;2022-07-22T11:51:42;99580.47;;;28.74;37.72
64675;BME280;51090;51.512;11.332;2022-07-22T11:54:09;99576.50;;;28.66;37.57
64675;BME280;51090;51.512;11.332;2022-07-22T11:56:35;99583.78;;;28.85;37.63
64675;BME280;51090;51.512;11.332;2022-07-22T11:59:04;99589.47;;;29.02;37.05
64675;BME280;51090;51.512;11.332;2022-07-22T12:01:34;99582.41;;;29.15;37.02
64675;BME280;51090;51.512;11.332;2022-07-22T12:04:09;99581.28;;;29.30;36.54
64675;BME280;51090;51.512;11.332;2022-07-22T12:06:37;99578.31;;;29.68;35.99
64675;BME280;51090;51.512;11.332;2022-07-22T12:09:07;99576.97;;;30.02;34.45
64675;BME280;51090;51.512;11.332;2022-07-22T12:11:35;99574.50;;;30.23;34.55
64675;BME280;51090;51.512;11.332;2022-07-22T12:14:10;99565.78;;;30.34;32.55
64675;BME280;51090;51.512;11.332;2022-07-22T12:16:37;99565.41;;;30.58;32.81
64675;BME280;51090;51.512;11.332;2022-07-22T12:19:07;99559.38;;;30.79;32.94
64675;BME280;51090;51.512;11.332;2022-07-22T12:21:35;99569.81;;;30.77;33.17
64675;BME280;51090;51.512;11.332;2022-07-22T12:24:04;99561.84;;;30.89;32.75
64675;BME280;51090;51.512;11.332;2022-07-22T12:26:48;99567.69;;;31.05;31.32
64675;BME280;51090;51.512;11.332;2022-07-22T12:32:03;99557.69;;;31.00;31.97
64675;BME280;51090;51.512;11.332;2022-07-22T12:36:58;99550.44;;;30.96;31.91
64675;BME280;51090;51.512;11.332;2022-07-22T12:39:24;99545.28;;;30.94;32.33
64675;BME280;51090;51.512;11.332;2022-07-22T12:41:54;99547.88;;;31.08;31.65
64675;BME280;51090;51.512;11.332;2022-07-22T12:44:22;99537.75;;;31.17;30.97
64675;BME280;51090;51.512;11.332;2022-07-22T12:46:53;99545.38;;;31.29;31.03
64675;BME280;51090;51.512;11.332;2022-07-22T12:49:25;99535.38;;;31.33;30.85
64675;BME280;51090;51.512;11.332;2022-07-22T12:52:07;99536.78;;;31.05;30.54
64675;BME280;51090;51.512;11.332;2022-07-22T12:54:34;99541.94;;;30.66;31.43
64675;BME280;51090;51.512;11.332;2022-07-22T12:57:01;99540.94;;;30.62;31.74
64675;BME280;51090;51.512;11.332;2022-07-22T12:59:27;99536.34;;;30.80;32.11
64675;BME280;51090;51.512;11.332;2022-07-22T13:01:53;99523.09;;;31.31;31.79
64675;BME280;51090;51.512;11.332;2022-07-22T13:04:19;99526.53;;;31.71;30.77
64675;BME280;51090;51.512;11.332;2022-07-22T13:06:45;99522.66;;;32.07;30.37
64675;BME280;51090;51.512;11.332;2022-07-22T13:09:11;99521.16;;;32.27;29.75
64675;BME280;51090;51.512;11.332;2022-07-22T13:11:37;99525.75;;;32.44;29.61